Time;durP1;ratioP1;P1;durP2;ratioP2;P2;SDS_P1;SDS_P2;PMS_P1;PMS_P2;Temp;Humidity;BMP_temperature;BMP_pressure;BME280_temperature;BME280_humidity;BME280_pressure;Samples;Min_cycle;Max_cycle;Signal;HPM_P1;HPM_P2
2023/09/30 00:02:06;;;;;;;;;;;21.30;73.20;;;;;;5039455;28;1464;-69
2023/09/30 00:04:32;;;;;;;;;;;21.30;72.60;;;;;;5040894;28;1277;-69
2023/09/30 00:06:57;;;;;;;;;;;21.30;72.60;;;;;;5040752;28;1308;-68
2023/09/30 00:09:23;;;;;;;;;;;21.30;72.60;;;;;;5042561;28;1305;-68
2023/09/30 00:11:48;;;;;;;;;;;21.30;72.60;;;;;;5021466;28;1454;-68
2023/09/30 00:14:14;;;;;;;;;;;21.30;72.60;;;;;;5023230;28;1408;-67
2023/09/30 00:16:40;;;;;;;;;;;21.30;72.60;;;;;;5039804;28;1238;-67
2023/09/30 00:19:06;;;;;;;;;;;21.30;72.60;;;;;;5036862;28;1910;-68
2023/09/30 00:21:31;;;;;;;;;;;21.20;72.50;;;;;;5037524;28;1385;-69
2023/09/30 00:23:57;;;;;;;;;;;21.30;72.60;;;;;;5039769;28;1446;-68
2023/09/30 00:26:22;;;;;;;;;;;21.30;72.60;;;;;;5040126;28;1455;-68
2023/09/30 00:28:48;;;;;;;;;;;21.30;72.60;;;;;;5036095;28;1392;-67
2023/09/30 00:31:13;;;;;;;;;;;21.30;72.60;;;;;;5040492;28;1292;-67
2023/09/30 00:33:39;;;;;;;;;;;21.30;72.60;;;;;;5038747;28;1264;-67
2023/09/30 00:36:08;;;;;;;;;;;21.30;72.60;;;;;;5024635;28;1326;-67
2023/09/30 00:38:33;;;;;;;;;;;21.30;72.60;;;;;;5017093;28;1910;-68
2023/09/30 00:40:59;;;;;;;;;;;21.30;72.60;;;;;;5039814;28;1280;-68
2023/09/30 00:43:24;;;;;;;;;;;21.30;72.60;;;;;;5030494;28;1469;-68
2023/09/30 00:45:55;;;;;;;;;;;21.30;72.60;;;;;;5041392;28;1429;-67
2023/09/30 00:48:21;;;;;;;;;;;21.30;72.60;;;;;;5037697;28;1485;-68
2023/09/30 00:50:46;;;;;;;;;;;21.30;72.60;;;;;;5041283;28;1285;-68
2023/09/30 00:53:12;;;;;;;;;;;21.30;72.60;;;;;;5041969;28;1671;-67
2023/09/30 00:55:37;;;;;;;;;;;21.30;72.60;;;;;;5023113;28;1563;-67
2023/09/30 00:58:03;;;;;;;;;;;21.30;72.60;;;;;;5041990;28;1380;-67
2023/09/30 01:00:28;;;;;;;;;;;21.20;72.50;;;;;;5026472;28;1902;-68
2023/09/30 01:02:54;;;;;;;;;;;21.20;72.50;;;;;;5042509;28;1494;-67
2023/09/30 01:05:19;;;;;;;;;;;21.20;72.50;;;;;;5039999;28;1672;-67
2023/09/30 01:07:45;;;;;;;;;;;21.20;72.50;;;;;;5038415;28;1013;-67
2023/09/30 01:10:10;;;;;;;;;;;21.30;72.60;;;;;;5041839;28;1450;-67
2023/09/30 01:12:37;;;;;;;;;;;21.30;72.60;;;;;;5045771;28;1543;-67
2023/09/30 01:15:04;;;;;;;;;;;21.30;72.60;;;;;;5041147;28;1504;-67
2023/09/30 01:17:30;;;;;;;;;;;21.30;72.60;;;;;;5042762;28;1339;-67
2023/09/30 01:19:56;;;;;;;;;;;21.30;72.70;;;;;;5027286;28;1960;-67
2023/09/30 01:22:23;;;;;;;;;;;21.30;72.60;;;;;;5041466;28;1498;-67
2023/09/30 01:24:48;;;;;;;;;;;21.30;72.60;;;;;;5042752;28;1328;-66
2023/09/30 01:27:16;;;;;;;;;;;21.20;72.60;;;;;;5033977;28;1632;-67
2023/09/30 01:29:42;;;;;;;;;;;21.20;72.60;;;;;;5040883;28;1542;-67
2023/09/30 01:32:08;;;;;;;;;;;21.20;72.60;;;;;;5075844;22;3540;-72
2023/09/30 01:34:34;;;;;;;;;;;21.20;73.00;;;;;;5062787;28;1234;-70
2023/09/30 01:36:59;;;;;;;;;;;21.30;72.70;;;;;;5046996;28;1348;-69
2023/09/30 01:39:25;;;;;;;;;;;21.20;72.60;;;;;;5057431;28;1957;-72
2023/09/30 01:41:50;;;;;;;;;;;21.20;72.50;;;;;;5061182;28;1401;-71
2023/09/30 01:44:16;;;;;;;;;;;21.20;72.60;;;;;;5057492;28;1375;-75
2023/09/30 01:46:41;;;;;;;;;;;21.30;72.60;;;;;;5047747;28;1358;-72
2023/09/30 01:49:07;;;;;;;;;;;21.20;72.60;;;;;;5042868;28;1532;-72
2023/09/30 01:51:32;;;;;;;;;;;21.20;72.60;;;;;;5061599;28;1405;-72
2023/09/30 01:53:58;;;;;;;;;;;21.20;72.60;;;;;;5061344;28;1343;-72
2023/09/30 01:56:23;;;;;;;;;;;21.20;72.60;;;;;;5061284;28;1499;-72
2023/09/30 01:58:49;;;;;;;;;;;21.20;72.60;;;;;;5061209;28;1926;-73
2023/09/30 02:01:15;;;;;;;;;;;21.20;72.60;;;;;;5047524;28;1716;-71
2023/09/30 02:03:41;;;;;;;;;;;21.20;72.60;;;;;;5061023;28;1348;-72
2023/09/30 02:06:07;;;;;;;;;;;21.20;72.60;;;;;;5060391;28;1622;-72
2023/09/30 02:08:33;;;;;;;;;;;21.20;72.60;;;;;;5061036;28;1358;-71
2023/09/30 02:10:58;;;;;;;;;;;21.20;72.60;;;;;;5044989;28;1390;-71
2023/09/30 02:13:24;;;;;;;;;;;21.20;72.60;;;;;;5060672;28;1341;-71
2023/09/30 02:15:49;;;;;;;;;;;21.20;72.60;;;;;;5048409;28;1313;-72
2023/09/30 02:18:15;;;;;;;;;;;21.20;72.60;;;;;;5060649;28;1223;-71
2023/09/30 02:20:40;;;;;;;;;;;21.20;72.60;;;;;;5044728;28;1910;-72
2023/09/30 02:23:10;;;;;;;;;;;21.20;72.60;;;;;;5058562;28;1322;-72
2023/09/30 02:25:36;;;;;;;;;;;21.20;72.70;;;;;;5061651;28;1457;-72
2023/09/30 02:28:02;;;;;;;;;;;21.20;72.60;;;;;;5059131;28;1903;-73
2023/09/30 02:30:27;;;;;;;;;;;21.20;72.60;;;;;;5057189;28;1446;-71
2023/09/30 02:32:53;;;;;;;;;;;21.30;72.70;;;;;;5061894;28;1267;-72
2023/09/30 02:35:20;;;;;;;;;;;21.20;72.60;;;;;;5062310;28;1483;-72
2023/09/30 02:37:45;;;;;;;;;;;21.20;72.60;;;;;;5075345;28;1331;-71
2023/09/30 02:40:11;;;;;;;;;;;21.20;72.60;;;;;;5036526;28;1976;-71
2023/09/30 02:42:37;;;;;;;;;;;21.30;72.70;;;;;;5062679;28;1259;-72
2023/09/30 02:45:03;;;;;;;;;;;21.30;72.70;;;;;;5059281;28;1322;-72
2023/09/30 02:47:29;;;;;;;;;;;21.20;72.70;;;;;;5061247;28;1461;-72
2023/09/30 02:49:57;;;;;;;;;;;21.20;72.60;;;;;;5043755;28;1397;-71
2023/09/30 02:52:23;;;;;;;;;;;21.20;72.70;;;;;;5041467;28;1248;-72
2023/09/30 02:54:49;;;;;;;;;;;21.20;72.70;;;;;;5060919;28;1345;-72
2023/09/30 02:57:15;;;;;;;;;;;21.20;72.70;;;;;;5046519;28;1794;-71
2023/09/30 02:59:40;;;;;;;;;;;21.20;72.70;;;;;;5062622;28;1906;-72
2023/09/30 03:02:06;;;;;;;;;;;21.20;72.70;;;;;;5045078;28;1470;-72
2023/09/30 03:04:32;;;;;;;;;;;21.20;72.70;;;;;;5062028;28;1499;-72
2023/09/30 03:06:58;;;;;;;;;;;21.20;72.70;;;;;;5064642;28;1183;-72
2023/09/30 03:09:23;;;;;;;;;;;21.20;72.60;;;;;;5059737;28;1436;-71
2023/09/30 03:11:49;;;;;;;;;;;21.20;72.70;;;;;;5061612;28;1354;-70
2023/09/30 03:14:15;;;;;;;;;;;21.20;72.70;;;;;;5058921;28;1580;-71
2023/09/30 03:16:41;;;;;;;;;;;21.20;72.70;;;;;;5057056;28;1345;-72
2023/09/30 03:19:07;;;;;;;;;;;21.20;72.70;;;;;;5057909;28;1998;-71
2023/09/30 03:21:34;;;;;;;;;;;21.20;72.70;;;;;;5074581;28;2065;-71
2023/09/30 03:24:01;;;;;;;;;;;21.20;72.70;;;;;;5072870;28;1389;-72
2023/09/30 03:26:29;;;;;;;;;;;21.20;72.70;;;;;;5060231;28;1555;-73
2023/09/30 03:28:55;;;;;;;;;;;21.20;72.70;;;;;;5063824;28;1305;-73
2023/09/30 03:31:20;;;;;;;;;;;21.20;72.80;;;;;;5061821;28;1299;-73
2023/09/30 03:33:46;;;;;;;;;;;21.20;72.70;;;;;;5057449;28;1117;-72
2023/09/30 03:36:12;;;;;;;;;;;21.20;72.70;;;;;;5059547;28;1235;-72
2023/09/30 03:38:39;;;;;;;;;;;21.20;72.70;;;;;;5042102;28;1383;-70
2023/09/30 03:41:08;;;;;;;;;;;21.20;73.40;;;;;;5026847;28;1339;-71
2023/09/30 03:43:35;;;;;;;;;;;21.20;72.70;;;;;;5076672;28;1391;-72
2023/09/30 03:46:01;;;;;;;;;;;21.20;72.70;;;;;;5058504;28;1290;-70
2023/09/30 03:48:26;;;;;;;;;;;21.20;72.70;;;;;;5058323;28;1438;-69
2023/09/30 03:50:52;;;;;;;;;;;21.20;72.70;;;;;;5059279;28;1310;-69
2023/09/30 03:53:18;;;;;;;;;;;21.20;72.70;;;;;;5061731;28;1405;-69
2023/09/30 03:55:43;;;;;;;;;;;21.20;72.70;;;;;;5056206;28;1338;-69
2023/09/30 03:58:08;;;;;;;;;;;21.20;72.70;;;;;;5039430;28;1487;-70
2023/09/30 04:00:35;;;;;;;;;;;21.30;72.80;;;;;;5058103;28;1902;-70
2023/09/30 04:03:02;;;;;;;;;;;21.20;72.70;;;;;;5061076;28;1034;-69
2023/09/30 04:05:33;;;;;;;;;;;21.20;72.70;;;;;;5060673;28;1369;-70
2023/09/30 04:07:59;;;;;;;;;;;21.20;72.70;;;;;;5062306;28;1386;-69
2023/09/30 04:10:25;;;;;;;;;;;21.20;72.70;;;;;;5060886;28;1000;-69
2023/09/30 04:12:50;;;;;;;;;;;21.20;72.70;;;;;;5042898;28;1262;-69
2023/09/30 04:15:16;;;;;;;;;;;21.20;72.70;;;;;;5060292;28;1430;-72
2023/09/30 04:17:41;;;;;;;;;;;21.20;72.70;;;;;;5027675;28;1212;-73
2023/09/30 04:20:15;;;;;;;;;;;21.20;72.70;;;;;;5059496;28;1975;-73
2023/09/30 04:22:41;;;;;;;;;;;21.20;72.70;;;;;;5044885;28;1504;-72
2023/09/30 04:25:10;;;;;;;;;;;21.20;72.70;;;;;;5073758;28;945;-71
2023/09/30 04:27:36;;;;;;;;;;;21.20;72.70;;;;;;5062779;28;1228;-73
2023/09/30 04:30:08;;;;;;;;;;;21.20;72.70;;;;;;5048073;28;1336;-73
2023/09/30 04:32:36;;;;;;;;;;;21.20;72.70;;;;;;5056192;28;1417;-73
2023/09/30 04:35:02;;;;;;;;;;;21.20;73.50;;;;;;5067856;28;1111;-73
2023/09/30 04:37:28;;;;;;;;;;;21.20;72.70;;;;;;5062210;28;1238;-73
2023/09/30 04:39:54;;;;;;;;;;;21.20;72.70;;;;;;5059020;28;1942;-73
2023/09/30 04:42:19;;;;;;;;;;;21.20;72.70;;;;;;5045865;28;1406;-72
2023/09/30 04:44:45;;;;;;;;;;;21.20;72.80;;;;;;5066559;28;1244;-73
2023/09/30 04:47:11;;;;;;;;;;;21.20;72.70;;;;;;5064404;28;1175;-73
2023/09/30 04:49:37;;;;;;;;;;;21.20;72.70;;;;;;5062747;28;1248;-73
2023/09/30 04:52:02;;;;;;;;;;;21.20;72.70;;;;;;5061479;28;1322;-73
2023/09/30 04:54:29;;;;;;;;;;;21.20;72.80;;;;;;5063049;28;1589;-73
2023/09/30 04:56:55;;;;;;;;;;;21.30;72.80;;;;;;5064572;28;1430;-73
2023/09/30 04:59:20;;;;;;;;;;;21.20;72.80;;;;;;5064049;28;1960;-73
2023/09/30 05:01:46;;;;;;;;;;;21.20;72.80;;;;;;5064526;28;1331;-73
2023/09/30 05:04:11;;;;;;;;;;;21.20;72.70;;;;;;5062212;28;1440;-72
2023/09/30 05:06:37;;;;;;;;;;;21.20;72.80;;;;;;5060249;28;1365;-72
2023/09/30 05:09:02;;;;;;;;;;;21.20;72.80;;;;;;5062976;28;1498;-72
2023/09/30 05:11:28;;;;;;;;;;;21.20;72.70;;;;;;5062745;28;1355;-72
2023/09/30 05:13:54;;;;;;;;;;;21.20;72.80;;;;;;5062207;28;1251;-72
2023/09/30 05:16:19;;;;;;;;;;;21.20;72.80;;;;;;5061708;28;1415;-72
2023/09/30 05:18:45;;;;;;;;;;;21.20;72.80;;;;;;5061102;28;1969;-72
2023/09/30 05:21:11;;;;;;;;;;;21.20;72.80;;;;;;5062443;28;1418;-72
2023/09/30 05:23:37;;;;;;;;;;;21.20;72.80;;;;;;5064290;28;1339;-71
2023/09/30 05:26:02;;;;;;;;;;;21.20;72.80;;;;;;5046543;28;1284;-71
2023/09/30 05:28:28;;;;;;;;;;;21.20;72.80;;;;;;5063493;28;1333;-72
2023/09/30 05:30:53;;;;;;;;;;;21.20;72.80;;;;;;5063016;28;1362;-72
2023/09/30 05:33:19;;;;;;;;;;;21.20;72.80;;;;;;5062846;28;1465;-71
2023/09/30 05:35:44;;;;;;;;;;;21.20;72.80;;;;;;5064728;28;1358;-72
2023/09/30 05:38:13;;;;;;;;;;;21.20;72.80;;;;;;5063450;28;1448;-72
2023/09/30 05:40:38;;;;;;;;;;;21.20;72.80;;;;;;5060742;28;1981;-73
2023/09/30 05:43:05;;;;;;;;;;;21.20;72.80;;;;;;5063151;28;1235;-72
2023/09/30 05:45:31;;;;;;;;;;;21.20;72.80;;;;;;5064607;28;1563;-72
2023/09/30 05:47:58;;;;;;;;;;;21.20;72.80;;;;;;5076175;28;1414;-72
2023/09/30 05:50:25;;;;;;;;;;;21.20;72.80;;;;;;5063625;28;1317;-72
2023/09/30 05:52:51;;;;;;;;;;;21.20;72.80;;;;;;5079143;28;1361;-71
2023/09/30 05:55:20;;;;;;;;;;;21.20;72.80;;;;;;5046155;28;1153;-71
2023/09/30 05:57:49;;;;;;;;;;;21.20;72.80;;;;;;5060925;28;1456;-72
2023/09/30 06:00:20;;;;;;;;;;;21.20;72.80;;;;;;5046281;28;1957;-73
2023/09/30 06:02:46;;;;;;;;;;;21.20;72.80;;;;;;5060861;28;1296;-71
2023/09/30 06:05:11;;;;;;;;;;;21.20;72.80;;;;;;5059665;28;1441;-71
2023/09/30 06:07:37;;;;;;;;;;;21.20;72.80;;;;;;5044869;28;1171;-72
2023/09/30 06:10:03;;;;;;;;;;;21.20;72.80;;;;;;5051496;28;1534;-72
2023/09/30 06:12:28;;;;;;;;;;;21.20;72.80;;;;;;5062751;28;1521;-72
2023/09/30 06:14:54;;;;;;;;;;;21.20;72.80;;;;;;5062824;28;1362;-72
2023/09/30 06:17:22;;;;;;;;;;;21.20;72.80;;;;;;5044669;28;2046;-72
2023/09/30 06:19:49;;;;;;;;;;;21.20;72.80;;;;;;5061607;28;2000;-73
2023/09/30 06:22:14;;;;;;;;;;;21.20;72.80;;;;;;5063391;28;1403;-73
2023/09/30 06:24:40;;;;;;;;;;;21.20;72.80;;;;;;5076768;28;1895;-72
2023/09/30 06:27:05;;;;;;;;;;;21.20;72.80;;;;;;5073828;28;1444;-73
2023/09/30 06:29:31;;;;;;;;;;;21.20;72.80;;;;;;5040372;28;1321;-73
2023/09/30 06:31:56;;;;;;;;;;;21.20;71.20;;;;;;5057569;28;1319;-71
2023/09/30 06:34:22;;;;;;;;;;;21.20;69.60;;;;;;5056133;28;1464;-71
2023/09/30 06:36:47;;;;;;;;;;;21.20;68.50;;;;;;5059572;28;1235;-72
2023/09/30 06:39:13;;;;;;;;;;;21.20;67.40;;;;;;5060324;28;1914;-71
2023/09/30 06:41:39;;;;;;;;;;;21.20;67.00;;;;;;5060732;28;1458;-71
2023/09/30 06:44:05;;;;;;;;;;;21.10;67.20;;;;;;5066865;28;1340;-71
2023/09/30 06:46:31;;;;;;;;;;;21.10;67.50;;;;;;5059300;28;1215;-71
2023/09/30 06:48:56;;;;;;;;;;;21.10;67.20;;;;;;5043145;28;1987;-71
2023/09/30 06:51:22;;;;;;;;;;;21.10;67.00;;;;;;5061215;28;1471;-72
2023/09/30 06:53:47;;;;;;;;;;;21.10;67.00;;;;;;5057233;28;1370;-71
2023/09/30 06:56:12;;;;;;;;;;;21.10;67.10;;;;;;5041663;28;1340;-71
2023/09/30 06:58:38;;;;;;;;;;;21.10;66.80;;;;;;5046713;28;2264;-73
2023/09/30 07:01:03;;;;;;;;;;;21.10;67.30;;;;;;5060758;28;2328;-72
2023/09/30 07:03:30;;;;;;;;;;;21.10;67.00;;;;;;5055992;28;1356;-71
2023/09/30 07:05:56;;;;;;;;;;;21.10;66.70;;;;;;5056656;28;1892;-72
2023/09/30 07:08:22;;;;;;;;;;;21.10;66.60;;;;;;5040370;28;1199;-72
2023/09/30 07:10:49;;;;;;;;;;;21.10;66.40;;;;;;5074642;28;1669;-72
2023/09/30 07:13:18;;;;;;;;;;;21.10;66.50;;;;;;5073820;28;1935;-72
2023/09/30 07:15:43;;;;;;;;;;;21.10;66.30;;;;;;5034867;28;1464;-72
2023/09/30 07:18:09;;;;;;;;;;;21.10;66.40;;;;;;5044060;28;1258;-73
2023/09/30 07:20:35;;;;;;;;;;;21.10;66.40;;;;;;5058018;28;1951;-73
2023/09/30 07:23:01;;;;;;;;;;;21.00;66.40;;;;;;5057584;28;1306;-73
2023/09/30 07:25:26;;;;;;;;;;;21.00;66.30;;;;;;5043380;28;1354;-73
2023/09/30 07:27:52;;;;;;;;;;;21.00;66.00;;;;;;5061399;28;1178;-72
2023/09/30 07:30:17;;;;;;;;;;;21.00;66.30;;;;;;5076319;28;1314;-73
2023/09/30 07:32:43;;;;;;;;;;;21.10;65.80;;;;;;5075335;28;1726;-73
2023/09/30 07:35:09;;;;;;;;;;;21.00;66.50;;;;;;5074676;28;1400;-72
2023/09/30 07:37:34;;;;;;;;;;;21.00;65.70;;;;;;5028533;28;1394;-72
2023/09/30 07:40:00;;;;;;;;;;;21.00;66.10;;;;;;5060318;28;1894;-73
2023/09/30 07:42:25;;;;;;;;;;;21.00;65.70;;;;;;5063179;28;1275;-73
2023/09/30 07:44:51;;;;;;;;;;;21.00;65.80;;;;;;5072801;22;3683;-64
2023/09/30 07:47:17;;;;;;;;;;;21.00;65.70;;;;;;5060268;28;1404;-65
2023/09/30 07:49:42;;;;;;;;;;;21.00;65.80;;;;;;5057894;28;1194;-65
2023/09/30 07:52:08;;;;;;;;;;;21.00;65.60;;;;;;5059407;28;1128;-64
2023/09/30 07:54:33;;;;;;;;;;;21.00;65.40;;;;;;5060440;28;1284;-65
2023/09/30 07:56:59;;;;;;;;;;;21.00;65.80;;;;;;5062129;28;1336;-64
2023/09/30 07:59:25;;;;;;;;;;;21.00;65.90;;;;;;5058503;28;1964;-64
2023/09/30 08:01:51;;;;;;;;;;;21.00;65.50;;;;;;5059636;28;1188;-65
2023/09/30 08:04:17;;;;;;;;;;;21.00;65.40;;;;;;5060225;28;1372;-64
2023/09/30 08:06:43;;;;;;;;;;;21.00;65.40;;;;;;5058246;28;856;-65
2023/09/30 08:09:11;;;;;;;;;;;21.00;65.50;;;;;;5061443;28;1123;-64
2023/09/30 08:11:37;;;;;;;;;;;21.00;65.30;;;;;;5058306;28;1266;-64
2023/09/30 08:14:06;;;;;;;;;;;21.00;65.30;;;;;;5056641;28;1524;-65
2023/09/30 08:16:35;;;;;;;;;;;21.00;65.40;;;;;;5055107;28;1164;-64
2023/09/30 08:19:00;;;;;;;;;;;21.00;65.30;;;;;;5057004;28;1965;-64
2023/09/30 08:21:26;;;;;;;;;;;21.00;65.40;;;;;;5056340;28;1315;-63
2023/09/30 08:23:51;;;;;;;;;;;21.00;65.30;;;;;;5059352;28;1463;-64
2023/09/30 08:26:17;;;;;;;;;;;20.90;65.40;;;;;;5061027;28;1350;-64
2023/09/30 08:28:42;;;;;;;;;;;20.90;65.20;;;;;;5058853;28;1356;-64
2023/09/30 08:31:09;;;;;;;;;;;20.90;65.10;;;;;;5057232;28;1317;-64
2023/09/30 08:33:35;;;;;;;;;;;20.90;65.10;;;;;;5060965;28;1198;-64
2023/09/30 08:36:08;;;;;;;;;;;21.00;65.20;;;;;;5058803;28;1302;-65
2023/09/30 08:38:34;;;;;;;;;;;20.90;65.30;;;;;;5060947;28;1237;-64
2023/09/30 08:41:00;;;;;;;;;;;20.90;65.20;;;;;;5061225;28;1902;-64
2023/09/30 08:43:27;;;;;;;;;;;20.90;65.00;;;;;;5044484;28;1466;-64
2023/09/30 08:45:53;;;;;;;;;;;20.90;65.30;;;;;;5055846;28;1381;-64
2023/09/30 08:48:19;;;;;;;;;;;20.90;65.20;;;;;;5059883;28;1508;-65
2023/09/30 08:50:45;;;;;;;;;;;20.90;65.00;;;;;;5060738;28;1441;-64
2023/09/30 08:53:10;;;;;;;;;;;20.90;65.00;;;;;;5061864;28;1509;-64
2023/09/30 08:55:36;;;;;;;;;;;20.90;65.00;;;;;;5061403;28;1462;-64
2023/09/30 08:58:01;;;;;;;;;;;20.90;64.90;;;;;;5054978;28;1483;-65
2023/09/30 09:00:27;;;;;;;;;;;20.90;65.00;;;;;;5058782;28;1910;-64
2023/09/30 09:02:52;;;;;;;;;;;20.90;64.90;;;;;;5055755;28;1375;-63
2023/09/30 09:05:18;;;;;;;;;;;20.90;65.00;;;;;;5059088;28;1280;-64
2023/09/30 09:07:43;;;;;;;;;;;20.90;65.20;;;;;;5057866;28;1382;-63
2023/09/30 09:10:10;;;;;;;;;;;20.90;65.00;;;;;;5056845;28;1103;-64
2023/09/30 09:12:38;;;;;;;;;;;20.90;65.00;;;;;;5062697;28;1451;-64
2023/09/30 09:15:07;;;;;;;;;;;20.90;65.10;;;;;;5061075;28;1460;-65
2023/09/30 09:17:45;;;;;;;;;;;20.90;65.20;;;;;;5060721;28;1052;-65
2023/09/30 09:20:13;;;;;;;;;;;20.90;64.90;;;;;;5060985;28;1902;-65
2023/09/30 09:22:42;;;;;;;;;;;20.90;65.00;;;;;;5059643;28;1318;-65
2023/09/30 09:25:08;;;;;;;;;;;20.90;64.90;;;;;;5061884;28;1302;-65
2023/09/30 09:27:35;;;;;;;;;;;20.90;65.00;;;;;;5058429;28;1275;-65
2023/09/30 09:30:19;;;;;;;;;;;20.90;65.10;;;;;;5061800;28;1367;-65
2023/09/30 09:32:54;;;;;;;;;;;20.90;64.90;;;;;;5061670;28;1385;-65
2023/09/30 09:35:25;;;;;;;;;;;20.90;64.90;;;;;;5059976;28;1461;-65
2023/09/30 09:37:57;;;;;;;;;;;20.90;64.90;;;;;;5057493;28;1299;-65
2023/09/30 09:40:24;;;;;;;;;;;20.90;64.80;;;;;;5064978;28;1955;-65
2023/09/30 09:42:50;;;;;;;;;;;20.90;64.60;;;;;;5068505;28;1381;-65
2023/09/30 09:45:16;;;;;;;;;;;20.90;64.50;;;;;;5062191;28;1496;-65
2023/09/30 09:47:41;;;;;;;;;;;20.90;64.20;;;;;;5060953;28;1346;-65
2023/09/30 09:50:07;;;;;;;;;;;20.90;64.30;;;;;;5062980;28;1281;-65
2023/09/30 09:52:34;;;;;;;;;;;20.90;64.50;;;;;;5063383;28;1505;-65
2023/09/30 09:54:59;;;;;;;;;;;20.90;64.40;;;;;;5061442;28;1636;-65
2023/09/30 09:57:25;;;;;;;;;;;20.90;64.30;;;;;;5044697;28;1679;-65
2023/09/30 09:59:51;;;;;;;;;;;20.90;64.20;;;;;;5042671;28;1971;-65
2023/09/30 10:02:17;;;;;;;;;;;20.90;64.40;;;;;;5042055;28;1458;-65
2023/09/30 10:04:46;;;;;;;;;;;20.90;65.30;;;;;;5059494;28;1318;-65
2023/09/30 10:07:16;;;;;;;;;;;21.00;64.30;;;;;;5061354;28;1256;-65
2023/09/30 10:09:45;;;;;;;;;;;20.90;64.30;;;;;;5059440;28;2071;-65
2023/09/30 10:12:10;;;;;;;;;;;20.90;64.50;;;;;;5060525;28;919;-65
2023/09/30 10:14:36;;;;;;;;;;;20.90;64.50;;;;;;5060597;28;1312;-65
2023/09/30 10:17:03;;;;;;;;;;;21.00;64.60;;;;;;5060708;28;2003;-65
2023/09/30 10:19:30;;;;;;;;;;;20.90;64.70;;;;;;5061913;28;1906;-65
2023/09/30 10:22:14;;;;;;;;;;;21.00;64.90;;;;;;5060868;28;1422;-65
2023/09/30 10:24:40;;;;;;;;;;;21.00;64.90;;;;;;5060509;28;1326;-65
2023/09/30 10:27:24;;;;;;;;;;;21.00;64.50;;;;;;5060427;28;1646;-65
2023/09/30 10:30:02;;;;;;;;;;;21.00;64.10;;;;;;5061870;28;1358;-65
2023/09/30 10:32:46;;;;;;;;;;;21.00;64.20;;;;;;5058576;28;1447;-65
2023/09/30 10:35:11;;;;;;;;;;;21.00;64.30;;;;;;5061882;28;1374;-65
2023/09/30 10:37:38;;;;;;;;;;;21.00;64.20;;;;;;5050895;28;4619;-63
2023/09/30 10:40:04;;;;;;;;;;;21.00;64.30;;;;;;5063332;28;4639;-65
2023/09/30 10:42:52;;;;;;;;;;;21.00;64.20;;;;;;5060789;28;1431;-65
2023/09/30 10:45:38;;;;;;;;;;;20.90;64.10;;;;;;5062631;28;1336;-65
2023/09/30 10:48:22;;;;;;;;;;;21.00;64.20;;;;;;5062334;28;1429;-65
2023/09/30 10:50:58;;;;;;;;;;;20.90;63.80;;;;;;5060178;28;1317;-65
2023/09/30 10:53:24;;;;;;;;;;;21.00;63.60;;;;;;5058648;28;1457;-65
2023/09/30 10:55:55;;;;;;;;;;;20.90;63.30;;;;;;5041927;28;1295;-65
2023/09/30 10:58:21;;;;;;;;;;;20.90;63.20;;;;;;5062991;28;1222;-65
2023/09/30 11:00:53;;;;;;;;;;;20.90;63.40;;;;;;5061724;28;1907;-65
2023/09/30 11:03:22;;;;;;;;;;;20.90;62.70;;;;;;5044883;28;1127;-65
2023/09/30 11:05:48;;;;;;;;;;;20.90;61.90;;;;;;5064158;28;1445;-65
2023/09/30 11:08:15;;;;;;;;;;;20.90;62.20;;;;;;5059903;28;1919;-65
2023/09/30 11:10:46;;;;;;;;;;;20.90;62.40;;;;;;5040035;28;1068;-65
2023/09/30 11:13:12;;;;;;;;;;;20.90;62.30;;;;;;5058025;28;1352;-65
2023/09/30 11:15:38;;;;;;;;;;;20.90;62.00;;;;;;5059792;28;1344;-64
2023/09/30 11:18:23;;;;;;;;;;;20.90;62.20;;;;;;5061731;28;1244;-65
2023/09/30 11:20:49;;;;;;;;;;;20.90;62.10;;;;;;5057678;28;1967;-65
2023/09/30 11:23:15;;;;;;;;;;;20.90;62.30;;;;;;5059700;28;1437;-65
2023/09/30 11:25:41;;;;;;;;;;;20.90;62.30;;;;;;5044708;28;1465;-64
2023/09/30 11:28:16;;;;;;;;;;;20.90;62.20;;;;;;5050802;28;1403;-65
2023/09/30 11:31:01;;;;;;;;;;;20.90;62.10;;;;;;5045889;28;1396;-64
2023/09/30 11:33:27;;;;;;;;;;;20.90;62.30;;;;;;5059385;28;1319;-64
2023/09/30 11:36:05;;;;;;;;;;;20.90;62.50;;;;;;5061066;28;1386;-64
2023/09/30 11:38:31;;;;;;;;;;;20.90;62.60;;;;;;5061488;28;1380;-64
2023/09/30 11:41:03;;;;;;;;;;;20.90;62.80;;;;;;5042680;28;1968;-65
2023/09/30 11:43:32;;;;;;;;;;;20.90;62.90;;;;;;5060605;28;1372;-65
2023/09/30 11:46:11;;;;;;;;;;;20.90;63.00;;;;;;5058823;28;1480;-64
2023/09/30 11:48:37;;;;;;;;;;;21.00;63.10;;;;;;5057492;28;1477;-64
2023/09/30 11:51:03;;;;;;;;;;;20.90;63.10;;;;;;5057724;28;1372;-64
2023/09/30 11:53:32;;;;;;;;;;;20.90;63.20;;;;;;5058957;28;1465;-65
2023/09/30 11:55:58;;;;;;;;;;;20.90;63.30;;;;;;5057794;28;1451;-65
2023/09/30 11:58:25;;;;;;;;;;;20.90;63.30;;;;;;5059739;28;1529;-65
2023/09/30 12:00:53;;;;;;;;;;;20.90;63.20;;;;;;5059114;28;1914;-65
2023/09/30 12:03:18;;;;;;;;;;;20.90;62.90;;;;;;5060963;28;1252;-65
2023/09/30 12:05:45;;;;;;;;;;;20.90;62.90;;;;;;5057482;28;1728;-65
2023/09/30 12:08:11;;;;;;;;;;;20.90;62.80;;;;;;5059863;28;1693;-65
2023/09/30 12:10:36;;;;;;;;;;;21.00;62.80;;;;;;5059083;28;1388;-65
2023/09/30 12:13:02;;;;;;;;;;;20.90;62.50;;;;;;5059780;28;1407;-65
2023/09/30 12:15:27;;;;;;;;;;;20.90;62.50;;;;;;5059131;28;1703;-65
2023/09/30 12:17:53;;;;;;;;;;;20.90;62.50;;;;;;5060002;28;1600;-64
2023/09/30 12:20:18;;;;;;;;;;;21.00;62.60;;;;;;5060550;28;1910;-65
2023/09/30 12:22:44;;;;;;;;;;;21.00;62.70;;;;;;5059074;28;1248;-65
2023/09/30 12:25:10;;;;;;;;;;;21.00;62.80;;;;;;5057616;28;1487;-65
2023/09/30 12:27:35;;;;;;;;;;;21.00;62.10;;;;;;5059504;28;1483;-65
2023/09/30 12:30:03;;;;;;;;;;;21.00;62.20;;;;;;5059612;28;1856;-65
2023/09/30 12:32:28;;;;;;;;;;;21.00;62.70;;;;;;5060340;28;1483;-65
2023/09/30 12:34:54;;;;;;;;;;;21.00;63.20;;;;;;5059546;28;2038;-65
2023/09/30 12:37:19;;;;;;;;;;;21.00;62.70;;;;;;5056305;28;1269;-64
2023/09/30 12:39:45;;;;;;;;;;;21.00;62.80;;;;;;5067772;28;1910;-64
2023/09/30 12:42:12;;;;;;;;;;;21.00;62.30;;;;;;5057837;28;1234;-65
2023/09/30 12:44:38;;;;;;;;;;;21.00;62.00;;;;;;5061841;28;1367;-64
2023/09/30 12:47:05;;;;;;;;;;;21.00;62.10;;;;;;5064337;28;1388;-65
2023/09/30 12:49:30;;;;;;;;;;;20.90;61.70;;;;;;5064237;28;1239;-65
2023/09/30 12:51:58;;;;;;;;;;;20.90;61.60;;;;;;5070175;28;1558;-65
2023/09/30 12:54:23;;;;;;;;;;;20.90;61.40;;;;;;5061945;28;1760;-63
2023/09/30 12:56:50;;;;;;;;;;;20.90;61.10;;;;;;5060935;28;886;-65
2023/09/30 12:59:17;;;;;;;;;;;20.90;61.30;;;;;;5059367;28;1902;-65
2023/09/30 13:01:43;;;;;;;;;;;20.90;60.90;;;;;;5063739;28;1457;-65
2023/09/30 13:04:08;;;;;;;;;;;20.90;61.10;;;;;;5045744;28;1399;-65
2023/09/30 13:06:35;;;;;;;;;;;20.90;61.20;;;;;;5060896;28;1357;-65
2023/09/30 13:09:01;;;;;;;;;;;20.90;61.10;;;;;;5060961;28;1669;-65
2023/09/30 13:11:26;;;;;;;;;;;20.90;61.50;;;;;;5029684;28;2033;-65
2023/09/30 13:13:52;;;;;;;;;;;20.90;61.70;;;;;;5057876;28;1327;-65
2023/09/30 13:16:17;;;;;;;;;;;20.90;61.90;;;;;;5043240;28;1472;-64
2023/09/30 13:18:43;;;;;;;;;;;20.90;62.10;;;;;;5061960;28;1330;-64
2023/09/30 13:21:09;;;;;;;;;;;20.90;61.80;;;;;;5044284;28;2007;-64
2023/09/30 13:23:34;;;;;;;;;;;20.90;61.30;;;;;;5062906;28;1246;-64
2023/09/30 13:26:00;;;;;;;;;;;20.90;61.20;;;;;;5046390;28;1618;-64
2023/09/30 13:28:27;;;;;;;;;;;20.90;61.30;;;;;;5061185;28;1565;-64
2023/09/30 13:30:53;;;;;;;;;;;20.90;61.60;;;;;;5064226;28;1393;-64
2023/09/30 13:33:20;;;;;;;;;;;20.90;61.90;;;;;;5063466;28;1411;-64
2023/09/30 13:35:46;;;;;;;;;;;20.90;62.00;;;;;;5062348;28;1529;-64
2023/09/30 13:38:12;;;;;;;;;;;20.90;62.00;;;;;;5063905;28;1113;-64
2023/09/30 13:40:37;;;;;;;;;;;20.90;62.00;;;;;;5060659;28;1969;-64
2023/09/30 13:43:06;;;;;;;;;;;20.90;62.10;;;;;;5062428;28;1313;-64
2023/09/30 13:45:31;;;;;;;;;;;20.90;61.70;;;;;;5061402;28;1271;-64
2023/09/30 13:47:56;;;;;;;;;;;20.90;61.60;;;;;;5059638;28;891;-64
2023/09/30 13:50:22;;;;;;;;;;;20.90;61.70;;;;;;5062538;28;1627;-64
2023/09/30 13:52:47;;;;;;;;;;;20.90;61.60;;;;;;5075288;22;2045;-69
2023/09/30 13:55:18;;;;;;;;;;;20.90;61.80;;;;;;5055640;28;1946;-69
2023/09/30 13:57:45;;;;;;;;;;;20.90;62.20;;;;;;5055054;28;962;-68
2023/09/30 14:00:11;;;;;;;;;;;20.90;62.10;;;;;;5058925;28;1973;-70
2023/09/30 14:02:37;;;;;;;;;;;20.90;62.10;;;;;;5057401;28;1277;-68
2023/09/30 14:05:04;;;;;;;;;;;20.90;62.40;;;;;;5058273;28;1403;-68
2023/09/30 14:07:30;;;;;;;;;;;20.90;62.50;;;;;;5054548;28;1136;-69
2023/09/30 14:09:55;;;;;;;;;;;20.90;62.90;;;;;;5038911;28;2048;-69
2023/09/30 14:12:21;;;;;;;;;;;20.90;62.50;;;;;;5039446;28;1548;-69
2023/09/30 14:14:47;;;;;;;;;;;20.90;62.80;;;;;;5055702;28;1444;-70
2023/09/30 14:17:14;;;;;;;;;;;20.90;63.00;;;;;;5054908;28;1491;-69
2023/09/30 14:19:40;;;;;;;;;;;20.90;63.10;;;;;;5056202;28;1951;-68
2023/09/30 14:22:06;;;;;;;;;;;20.90;63.20;;;;;;5037282;28;1399;-69
2023/09/30 14:24:33;;;;;;;;;;;20.90;62.50;;;;;;5039225;28;1400;-70
2023/09/30 14:26:58;;;;;;;;;;;20.90;62.20;;;;;;5055296;28;1402;-69
2023/09/30 14:29:24;;;;;;;;;;;20.90;62.00;;;;;;5054848;28;1403;-68